createdAt,value
2022-07-29T00:00:16.810Z,158
2022-07-29T00:05:19.886Z,158
2022-07-29T00:10:19.866Z,158
2022-07-29T00:15:19.979Z,158
2022-07-29T00:20:19.803Z,158
2022-07-29T00:25:19.881Z,158
2022-07-29T00:30:19.913Z,158
2022-07-29T00:35:19.919Z,158
2022-07-29T00:40:19.850Z,158
2022-07-29T00:45:19.885Z,158
2022-07-29T00:50:16.845Z,158
2022-07-29T00:55:16.776Z,158
2022-07-29T01:00:20.263Z,158
2022-07-29T01:05:19.876Z,158
2022-07-29T01:10:20.080Z,158
2022-07-29T01:15:19.898Z,158
2022-07-29T01:20:19.960Z,158
2022-07-29T01:25:19.968Z,158
2022-07-29T01:30:20.018Z,158
2022-07-29T01:35:20.056Z,158
2022-07-29T01:40:19.965Z,158
2022-07-29T01:45:16.859Z,158
2022-07-29T01:50:16.800Z,158
2022-07-29T01:55:20.182Z,158
2022-07-29T02:40:16.894Z,158
2022-07-29T02:45:20.100Z,158
2022-07-29T06:40:19.507Z,153
2022-07-29T08:20:19.792Z,315
2022-07-29T08:25:19.769Z,315
2022-07-29T12:40:16.875Z,158
2022-07-29T12:45:20.134Z,158
2022-07-29T14:10:20.395Z,202
2022-07-29T14:20:17.045Z,202
2022-07-29T14:30:20.294Z,158
2022-07-29T14:35:20.261Z,158
2022-07-29T14:40:20.243Z,292
2022-07-29T14:45:20.134Z,315
2022-07-29T14:50:23.526Z,315
2022-07-29T14:55:20.431Z,270
2022-07-29T15:00:20.208Z,315
2022-07-29T15:05:20.048Z,292
2022-07-29T15:10:20.365Z,315
2022-07-29T15:15:17.105Z,315
2022-07-29T15:20:17.176Z,315
2022-07-29T15:25:20.372Z,292
2022-07-29T15:30:32.867Z,315
2022-07-29T15:35:20.395Z,315
2022-07-29T15:40:20.266Z,315
2022-07-29T15:45:20.218Z,315
2022-07-29T15:50:20.318Z,292
2022-07-29T15:55:20.214Z,315
2022-07-29T16:00:20.287Z,315
2022-07-29T16:05:20.479Z,225
2022-07-29T16:10:17.201Z,292
2022-07-29T16:15:17.457Z,315
2022-07-29T16:20:20.342Z,315
2022-07-29T16:25:20.392Z,315
2022-07-29T16:30:20.272Z,315
2022-07-29T16:35:20.402Z,315
2022-07-29T16:40:20.452Z,315
2022-07-29T16:45:21.260Z,315
2022-07-29T16:50:20.417Z,315
2022-07-29T16:55:20.330Z,292
2022-07-29T17:00:17.302Z,315
2022-07-29T17:05:17.274Z,315
2022-07-29T17:10:20.429Z,315
2022-07-29T17:15:20.551Z,270
2022-07-29T17:20:20.359Z,202
2022-07-29T17:25:21.342Z,202
2022-07-29T17:30:20.394Z,158
2022-07-29T17:35:20.359Z,315
2022-07-29T17:40:20.392Z,315
2022-07-29T17:45:20.502Z,292
2022-07-29T17:50:20.572Z,315
2022-07-29T17:55:17.233Z,315
2022-07-29T18:00:17.241Z,315
2022-07-29T18:05:20.456Z,315
2022-07-29T18:10:20.513Z,315
2022-07-29T18:15:20.504Z,292
2022-07-29T18:20:20.519Z,315
2022-07-29T18:25:20.626Z,270
2022-07-29T18:30:20.517Z,338
2022-07-29T18:35:20.449Z,315
2022-07-29T18:40:20.620Z,315
2022-07-29T18:45:19.507Z,135
2022-07-29T18:50:17.418Z,315
2022-07-29T18:55:20.552Z,315
2022-07-29T19:00:20.574Z,270
2022-07-29T19:05:20.511Z,270
2022-07-29T19:10:20.474Z,270
2022-07-29T19:20:20.466Z,292
2022-07-29T19:25:20.539Z,315
2022-07-29T19:30:20.683Z,270
2022-07-29T19:35:18.501Z,315
2022-07-29T19:40:18.644Z,202
2022-07-29T19:50:18.554Z,292
2022-07-29T19:55:18.774Z,315
2022-07-29T20:00:20.975Z,315
2022-07-29T20:05:18.764Z,315
2022-07-29T20:10:18.676Z,315
2022-07-29T20:15:18.590Z,315
2022-07-29T20:20:15.603Z,315
2022-07-29T20:25:15.671Z,315
2022-07-29T20:30:18.870Z,315
2022-07-29T20:35:19.837Z,225
2022-07-29T20:40:18.668Z,315
2022-07-29T20:45:18.869Z,315
2022-07-29T20:50:18.700Z,315
2022-07-29T20:55:16.594Z,315
2022-07-29T21:00:19.696Z,292
2022-07-29T21:05:19.822Z,315
2022-07-29T21:10:19.883Z,315
2022-07-29T21:15:19.754Z,270
2022-07-29T21:20:16.759Z,292
2022-07-29T21:25:19.794Z,315
2022-07-29T21:30:19.683Z,292
2022-07-29T21:36:01.996Z,315
2022-07-29T21:40:19.824Z,292
2022-07-29T21:45:16.786Z,315
2022-07-29T21:50:16.643Z,315
2022-07-29T21:55:19.819Z,315
2022-07-29T22:00:19.732Z,315
2022-07-29T22:05:19.782Z,292
2022-07-29T22:10:19.681Z,315
2022-07-29T22:15:19.918Z,315
2022-07-29T22:20:19.734Z,315
2022-07-29T22:25:19.825Z,315
2022-07-29T22:30:19.879Z,315
2022-07-29T22:35:19.827Z,315
2022-07-29T22:40:16.741Z,315
2022-07-29T22:50:19.939Z,315
2022-07-29T22:55:19.892Z,315
2022-07-29T23:00:19.898Z,315
